MV First Lady — WDD3673 — position and weather

sailwx.info

Track history (hours):
 
Tides and Currents Weather Stations Pressure Air Temp Water Temp Dewpoint Dewpoint Depression Visibility Wind Speed Wind Dir Waves Ship Positions

MV First Lady

Owner: QUEEN OF HEARTS CRUISES INC, NEW YORK, NY. More information available from US FCC via Universal Licensing System and Coast Guard Vessel Documentation Center.

Last reported at 2017-Oct-22 14:03 UTC. Time now 2017-Oct-22 17:46 UTC.
Position N 40°43' W 073°59'.

Length 30 m; draft 24.8 m.

Type: Passenger vessel. MMSI: 36671530.

Date/timePositionNaut miles runAvg speedWind from/ knotsBaromVisibWave heightAir tempDewpointWater temp
2017-Oct-22 14:03N 40°43' W 073°59'0 0.0
2017-Oct-22 13:54N 40°43' W 073°59'0 0.0
2017-Oct-22 13:29N 40°43' W 073°59'0 0.0
2017-Oct-22 12:59N 40°43' W 073°59'0 0.0
2017-Oct-22 12:26N 40°43' W 073°59'0 0.0
2017-Oct-22 11:53N 40°43' W 073°59'0 0.0
2017-Oct-22 11:30N 40°43' W 073°59'0 0.0
2017-Oct-22 10:57N 40°43' W 073°59'0 0.0
2017-Oct-22 10:23N 40°43' W 073°59'0 0.0
2017-Oct-22 09:59N 40°43' W 073°59'0 0.0
2017-Oct-22 09:28N 40°43' W 073°59'0 0.0
2017-Oct-22 08:56N 40°43' W 073°59'0 0.0
2017-Oct-22 08:26N 40°43' W 073°59'0 0.0
2017-Oct-22 07:49N 40°43' W 073°59'1 2.0
2017-Oct-22 07:13N 40°42' W 074°00'1 4.2
2017-Oct-22 06:59N 40°41' W 074°02'2 3.1
2017-Oct-22 06:26N 40°43' W 074°02'1 1.3
2017-Oct-22 05:51N 40°44' W 074°01'2 0.3
2017-Oct-21 23:18N 40°42' W 074°01'0 1.0
2017-Oct-21 22:55N 40°42' W 074°01'2 2.2
2017-Oct-21 22:12N 40°43' W 073°59'1 5.0
2017-Oct-21 21:56N 40°42' W 074°01'1 1.4
2017-Oct-21 21:00N 40°43' W 073°59'0 0.7
2017-Oct-21 20:25N 40°42' W 073°60'2 3.9
2017-Oct-21 19:51N 40°42' W 074°02'3 5.7
2017-Oct-21 19:23N 40°43' W 073°59'0 0.0
2017-Oct-21 19:00N 40°43' W 073°59'1 2.3
2017-Oct-21 18:25N 40°42' W 074°01'1 2.5
2017-Oct-21 17:57N 40°42' W 074°02'2 3.7
2017-Oct-21 17:17N 40°43' W 073°59'1 1.7
2017-Oct-21 16:51N 40°42' W 073°60'2 5.4
2017-Oct-21 16:26N 40°41' W 074°03'1 0.3
2017-Oct-21 13:18N 40°42' W 074°02'2 2.8
2017-Oct-21 12:34N 40°42' W 073°59'2 2.3
2017-Oct-21 11:43N 40°41' W 074°01'0 0.0
2017-Oct-21 10:56N 40°41' W 074°01'0 0.0
2017-Oct-21 10:28N 40°41' W 074°01'0 0.0
2017-Oct-21 09:46N 40°41' W 074°01'0 0.0
2017-Oct-21 09:18N 40°41' W 074°01'0 0.0
2017-Oct-21 08:50N 40°41' W 074°01'0 0.0
2017-Oct-21 08:21N 40°41' W 074°01'0 0.0
2017-Oct-21 07:59N 40°41' W 074°01'0 0.0
2017-Oct-21 07:26N 40°41' W 074°01'0 0.0
2017-Oct-21 07:00N 40°41' W 074°01'0 0.0
2017-Oct-21 06:30N 40°41' W 074°01'0 0.0
2017-Oct-21 05:53N 40°41' W 074°01'0 0.0
2017-Oct-21 05:29N 40°41' W 074°01'0 0.0
2017-Oct-21 04:59N 40°41' W 074°01'0 0.0
2017-Oct-21 04:27N 40°41' W 074°01'0 0.0
2017-Oct-21 03:59N 40°41' W 074°01'0 0.0
2017-Oct-21 03:28N 40°41' W 074°01'0 0.0
2017-Oct-21 02:53N 40°41' W 074°01'0 0.0
2017-Oct-21 02:26N 40°41' W 074°01'0 0.0
2017-Oct-21 01:59N 40°41' W 074°01'0 0.0
2017-Oct-21 01:29N 40°41' W 074°01'0 0.0
2017-Oct-21 01:00N 40°41' W 074°01'0 0.0
2017-Oct-21 00:24N 40°41' W 074°01'0 0.0
2017-Oct-20 23:58N 40°41' W 074°01'2 1.6
2017-Oct-20 22:39N 40°43' W 073°59'2 7.6
2017-Oct-20 22:22N 40°42' W 074°02'0 0.6
2017-Oct-20 22:00N 40°42' W 074°01'2 2.7
2017-Oct-20 21:17N 40°43' W 073°59'1 3.6
2017-Oct-20 20:54N 40°42' W 074°01'1 1.4
2017-Oct-20 20:28N 40°42' W 074°01'2 3.6
2017-Oct-20 19:55N 40°43' W 073°59'0 0.9
2017-Oct-20 19:25N 40°42' W 073°60'2 4.0
2017-Oct-20 18:51N 40°41' W 074°02'1 0.4
2017-Oct-20 15:31N 40°42' W 074°01'1 3.1
2017-Oct-20 15:17N 40°42' W 074°01'1 0.8
2017-Oct-20 13:50N 40°41' W 074°00'1 1.7
2017-Oct-20 13:29N 40°41' W 074°01'0 0.0
2017-Oct-20 13:00N 40°41' W 074°01'0 0.0
2017-Oct-20 12:27N 40°41' W 074°01'0 0.0
2017-Oct-20 12:00N 40°41' W 074°01'0 0.0
2017-Oct-20 11:29N 40°41' W 074°01'0 0.0
2017-Oct-20 10:58N 40°41' W 074°01'0 0.0
2017-Oct-20 10:28N 40°41' W 074°01'0 0.0
2017-Oct-20 09:55N 40°41' W 074°01'0 0.0
2017-Oct-20 09:30N 40°41' W 074°01'0 0.0
2017-Oct-20 08:59N 40°41' W 074°01'0 0.0
2017-Oct-20 08:30N 40°41' W 074°01'0 0.0
2017-Oct-20 07:53N 40°41' W 074°01'0 0.0
2017-Oct-20 07:30N 40°41' W 074°01'0 0.0
2017-Oct-20 06:58N 40°41' W 074°01'0 0.0
2017-Oct-20 06:28N 40°41' W 074°01'0 0.0
2017-Oct-20 05:58N 40°41' W 074°01'0 0.0
2017-Oct-20 05:29N 40°41' W 074°01'0 0.0
2017-Oct-20 05:00N 40°41' W 074°01'0 0.0
2017-Oct-20 04:24N 40°41' W 074°01'0 0.0
2017-Oct-20 03:55N 40°41' W 074°01'0 0.0
2017-Oct-20 03:29N 40°41' W 074°01'0 0.0
2017-Oct-20 02:55N 40°41' W 074°01'0 0.0
2017-Oct-20 02:30N 40°41' W 074°01'0 0.0
2017-Oct-20 01:59N 40°41' W 074°01'0 0.0
2017-Oct-20 01:25N 40°41' W 074°01'0 0.0
2017-Oct-20 00:59N 40°41' W 074°01'0 0.0
2017-Oct-20 00:30N 40°41' W 074°01'0 0.0
2017-Oct-19 23:57N 40°41' W 074°01'0 0.0
2017-Oct-19 23:22N 40°41' W 074°01'0 0.1
2017-Oct-19 23:00N 40°41' W 074°01'2 3.7
2017-Oct-19 22:27N 40°43' W 073°59'0 0.0
2017-Oct-19 16:02N 40°43' W 073°59'0 0.0
2017-Oct-19 15:46N 40°43' W 073°59'2 2.8
2017-Oct-19 15:07N 40°42' W 074°01'1 6.7
2017-Oct-19 14:57N 40°41' W 074°03'1 0.9
2017-Oct-19 13:27N 40°41' W 074°01'0 0.0
2017-Oct-19 12:54N 40°41' W 074°01'0 0.0
2017-Oct-19 12:29N 40°41' W 074°01'0 0.0
2017-Oct-19 11:57N 40°41' W 074°01'0 0.0
2017-Oct-19 11:29N 40°41' W 074°01'0 0.0
2017-Oct-19 11:00N 40°41' W 074°01'0 0.0
2017-Oct-19 10:28N 40°41' W 074°01'0 0.0
2017-Oct-19 10:00N 40°41' W 074°01'0 0.0
2017-Oct-19 09:27N 40°41' W 074°01'0 0.0
2017-Oct-19 09:00N 40°41' W 074°01'0 0.0
2017-Oct-19 08:29N 40°41' W 074°01'0 0.0
2017-Oct-19 08:00N 40°41' W 074°01'0 0.0
2017-Oct-19 07:27N 40°41' W 074°01'0 0.0
2017-Oct-19 06:53N 40°41' W 074°01'0 0.0
2017-Oct-19 06:24N 40°41' W 074°01'0 0.0
2017-Oct-19 06:00N 40°41' W 074°01'0 0.0
2017-Oct-19 05:29N 40°41' W 074°01'0 0.0
2017-Oct-19 05:00N 40°41' W 074°01'0 0.0
2017-Oct-19 04:29N 40°41' W 074°01'0 0.0
2017-Oct-19 03:56N 40°41' W 074°01'0 0.0
2017-Oct-19 03:30N 40°41' W 074°01'0 0.0
2017-Oct-19 03:00N 40°41' W 074°01'0 0.0
2017-Oct-19 02:30N 40°41' W 074°01'0 0.0
2017-Oct-19 02:00N 40°41' W 074°01'0 0.0
2017-Oct-19 01:30N 40°41' W 074°01'0 0.0
2017-Oct-19 00:56N 40°41' W 074°01'0 0.0
2017-Oct-19 00:28N 40°41' W 074°01'0 0.0
2017-Oct-18 23:57N 40°41' W 074°01'0 0.0
2017-Oct-18 23:22N 40°41' W 074°01'0 0.0
2017-Oct-18 23:00N 40°41' W 074°01'0 0.0
2017-Oct-18 22:28N 40°41' W 074°01'1 0.6
2017-Oct-18 20:09N 40°42' W 073°60'1 4.5
2017-Oct-18 19:59N 40°43' W 073°59'0 0.0
2017-Oct-18 19:29N 40°43' W 073°59'1 1.8
2017-Oct-18 18:51N 40°42' W 074°00'1 0.4
2017-Oct-18 15:35N 40°43' W 073°59'2 4.1
2017-Oct-18 15:11N 40°42' W 074°01'1 2.5
2017-Oct-18 14:51N 40°41' W 074°02'3 2.7
2017-Oct-18 13:55N 40°43' W 073°59'2 4.3
2017-Oct-18 13:26N 40°41' W 074°01'0 0.1
2017-Oct-18 13:00N 40°41' W 074°01'0 0.0
2017-Oct-18 12:30N 40°41' W 074°01'0 0.0
2017-Oct-18 12:00N 40°41' W 074°01'0 0.0
2017-Oct-18 11:29N 40°41' W 074°01'0 0.0
2017-Oct-18 11:00N 40°41' W 074°01'0 0.0
2017-Oct-18 10:29N 40°41' W 074°01'0 0.0
2017-Oct-18 10:00N 40°41' W 074°01'0 0.0
2017-Oct-18 09:28N 40°41' W 074°01'0 0.0
2017-Oct-18 08:59N 40°41' W 074°01'0 0.0
2017-Oct-18 08:29N 40°41' W 074°01'0 0.0
2017-Oct-18 07:59N 40°41' W 074°01'0 0.0
2017-Oct-18 07:28N 40°41' W 074°01'0 0.0
2017-Oct-18 07:00N 40°41' W 074°01'0 0.0
2017-Oct-18 06:29N 40°41' W 074°01'0 0.0
2017-Oct-18 06:00N 40°41' W 074°01'0 0.0
2017-Oct-18 05:30N 40°41' W 074°01'0 0.0
2017-Oct-18 05:00N 40°41' W 074°01'0 0.0
2017-Oct-18 04:30N 40°41' W 074°01'0 0.0
2017-Oct-18 03:59N 40°41' W 074°01'0 0.0
2017-Oct-18 03:30N 40°41' W 074°01'0 0.0
2017-Oct-18 02:59N 40°41' W 074°01'0 0.0
2017-Oct-18 02:29N 40°41' W 074°01'0 0.0
2017-Oct-18 01:56N 40°41' W 074°01'0 0.0
2017-Oct-18 01:30N 40°41' W 074°01'0 0.0
2017-Oct-18 01:00N 40°41' W 074°01'0 0.0
2017-Oct-18 00:30N 40°41' W 074°01'0 0.0
2017-Oct-18 00:00N 40°41' W 074°01'0 0.0
2017-Oct-17 23:27N 40°41' W 074°01'0 0.0
2017-Oct-17 23:00N 40°41' W 074°01'2 3.2
2017-Oct-17 22:21N 40°43' W 073°59'0 0.0
2017-Oct-17 17:50N 40°43' W 073°59'0 0.2
2017-Oct-17 17:16N 40°42' W 073°59'3 4.9
2017-Oct-17 16:42N 40°41' W 074°02'0 0.0
2017-Oct-17 14:58N 40°41' W 074°02'3 4.4
2017-Oct-17 14:20N 40°43' W 073°59'0 0.0
2017-Oct-17 14:00N 40°43' W 073°59'2 3.9
2017-Oct-17 13:29N 40°41' W 074°01'0 0.1
2017-Oct-17 13:00N 40°41' W 074°01'0 0.0
2017-Oct-17 12:29N 40°41' W 074°01'0 0.0
2017-Oct-17 12:00N 40°41' W 074°01'0 0.0
2017-Oct-17 11:30N 40°41' W 074°01'0 0.0
2017-Oct-17 11:00N 40°41' W 074°01'0 0.0
2017-Oct-17 10:30N 40°41' W 074°01'0 0.0
2017-Oct-17 09:59N 40°41' W 074°01'0 0.0
2017-Oct-17 09:30N 40°41' W 074°01'0 0.0
2017-Oct-17 08:57N 40°41' W 074°01'0 0.0
2017-Oct-17 08:30N 40°41' W 074°01'0 0.0
2017-Oct-17 08:00N 40°41' W 074°01'0 0.0
2017-Oct-17 07:29N 40°41' W 074°01'0 0.0
2017-Oct-17 07:00N 40°41' W 074°01'0 0.0
2017-Oct-17 06:28N 40°41' W 074°01'0 0.0
2017-Oct-17 05:53N 40°41' W 074°01'0 0.0
2017-Oct-17 05:30N 40°41' W 074°01'0 0.0
2017-Oct-17 04:59N 40°41' W 074°01'0 0.0
2017-Oct-17 04:29N 40°41' W 074°01'0 0.0
2017-Oct-17 04:00N 40°41' W 074°01'0 0.0
2017-Oct-17 03:28N 40°41' W 074°01'0 0.0
2017-Oct-17 03:00N 40°41' W 074°01'0 0.0
2017-Oct-17 02:30N 40°41' W 074°01'0 0.0
2017-Oct-17 02:00N 40°41' W 074°01'0 0.0
2017-Oct-17 01:30N 40°41' W 074°01'0 0.0
2017-Oct-17 00:59N 40°41' W 074°01'0 0.0
2017-Oct-17 00:26N 40°41' W 074°01'0 0.0
2017-Oct-16 23:59N 40°41' W 074°01'0 0.0
2017-Oct-16 23:27N 40°41' W 074°01'0 0.0
2017-Oct-16 22:59N 40°41' W 074°01'2 2.3
2017-Oct-16 22:20N 40°42' W 073°60'1 1.8
2017-Oct-16 21:31N 40°42' W 074°02'0 7.2
2017-Oct-16 21:30N 40°42' W 074°02'2 2.7
2017-Oct-16 20:40N 40°43' W 073°59'0 0.0
2017-Oct-16 20:30N 40°43' W 073°59'0 0.0
2017-Oct-16 19:56N 40°43' W 073°59'2 3.8
2017-Oct-16 19:23N 40°42' W 074°01'2 3.2
2017-Oct-16 18:44N 40°43' W 073°59'0 0.0
2017-Oct-16 18:30N 40°43' W 073°59'0 0.0
2017-Oct-16 18:00N 40°43' W 073°59'0 0.0
2017-Oct-16 16:33N 40°43' W 073°59'0 0.0
2017-Oct-16 16:30N 40°43' W 073°59'2 3.5
2017-Oct-16 15:57N 40°42' W 074°01'2 2.9
2017-Oct-16 15:17N 40°43' W 073°59'0 0.0
2017-Oct-16 14:45N 40°43' W 073°59'0 0.0
2017-Oct-16 14:29N 40°43' W 073°59'2 2.0
2017-Oct-16 13:29N 40°41' W 074°01'0 0.0
2017-Oct-16 12:56N 40°41' W 074°01'0 0.0
2017-Oct-16 12:30N 40°41' W 074°01'0 0.0
2017-Oct-16 11:59N 40°41' W 074°01'0 0.0
2017-Oct-16 11:28N 40°41' W 074°01'0 0.0
2017-Oct-16 10:59N 40°41' W 074°01'0 0.0
2017-Oct-16 10:30N 40°41' W 074°01'0 0.0
2017-Oct-16 09:56N 40°41' W 074°01'0 0.0
2017-Oct-16 09:30N 40°41' W 074°01'0 0.0
2017-Oct-16 08:57N 40°41' W 074°01'0 0.0
2017-Oct-16 08:30N 40°41' W 074°01'0 0.0
2017-Oct-16 07:57N 40°41' W 074°01'0 0.0
2017-Oct-16 07:29N 40°41' W 074°01'0 0.0
2017-Oct-16 06:59N 40°41' W 074°01'0 0.0
2017-Oct-16 06:26N 40°41' W 074°01'0 0.0
2017-Oct-16 06:00N 40°41' W 074°01'0 0.0
2017-Oct-16 05:30N 40°41' W 074°01'0 0.0
2017-Oct-16 05:00N 40°41' W 074°01'0 0.0
2017-Oct-16 04:30N 40°41' W 074°01'0 0.0
2017-Oct-16 04:00N 40°41' W 074°01'0 0.0
2017-Oct-16 03:30N 40°41' W 074°01'0 0.0
2017-Oct-16 02:56N 40°41' W 074°01'0 0.0
2017-Oct-16 02:29N 40°41' W 074°01'0 0.0
2017-Oct-16 01:58N 40°41' W 074°01'0 0.0
2017-Oct-16 01:29N 40°41' W 074°01'0 0.0
2017-Oct-16 00:58N 40°41' W 074°01'0 0.0
2017-Oct-16 00:30N 40°41' W 074°01'0 0.0
2017-Oct-15 23:56N 40°41' W 074°01'0 0.0
2017-Oct-15 23:30N 40°41' W 074°01'2 4.2
2017-Oct-15 23:00N 40°43' W 073°59'2 3.1
2017-Oct-15 22:30N 40°42' W 074°01'0 0.3
2017-Oct-15 21:59N 40°42' W 074°01'1 2.9
2017-Oct-15 21:29N 40°43' W 073°59'3 3.9
2017-Oct-15 20:49N 40°42' W 074°02'3 3.3
2017-Oct-15 20:01N 40°43' W 073°59'0 0.0
2017-Oct-15 19:56N 40°43' W 073°59'0 0.0
2017-Oct-15 19:17N 40°43' W 073°59'2 4.9
2017-Oct-15 18:57N 40°42' W 074°01'1 1.0
2017-Oct-15 18:26N 40°42' W 074°00'1 0.5
2017-Oct-15 17:03N 40°42' W 074°01'1 1.4
2017-Oct-15 16:34N 40°42' W 074°01'1 3.3
2017-Oct-15 16:11N 40°43' W 073°59'0 0.0
2017-Oct-15 16:00N 40°43' W 073°59'0 0.6
2017-Oct-15 15:26N 40°42' W 073°59'1 0.7
2017-Oct-15 14:40N 40°42' W 074°00'1 0.8
2017-Oct-15 13:45N 40°43' W 073°59'0 0.0
2017-Oct-15 13:10N 40°43' W 073°59'0 0.0
2017-Oct-15 12:50N 40°43' W 073°59'0 0.0
2017-Oct-15 12:24N 40°43' W 073°59'0 0.0
2017-Oct-15 12:00N 40°43' W 073°59'0 0.0
2017-Oct-15 10:32N 40°43' W 073°59'0 0.1
2017-Oct-15 10:25N 40°43' W 073°59'0 0.0
2017-Oct-15 09:58N 40°43' W 073°59'0 0.0
2017-Oct-15 09:28N 40°43' W 073°59'0 0.0
2017-Oct-15 08:58N 40°43' W 073°59'0 0.0
2017-Oct-15 08:27N 40°43' W 073°59'0 0.0
2017-Oct-15 07:58N 40°43' W 073°59'0 0.0
2017-Oct-15 07:27N 40°43' W 073°59'0 0.0
2017-Oct-15 06:56N 40°43' W 073°59'0 0.0
2017-Oct-15 06:25N 40°43' W 073°59'0 0.0
2017-Oct-15 05:57N 40°43' W 073°59'0 0.0
2017-Oct-15 04:50N 40°43' W 073°59'0 0.0
2017-Oct-15 04:21N 40°43' W 073°59'0 0.0
2017-Oct-15 03:59N 40°43' W 073°59'0 0.0
2017-Oct-15 03:26N 40°43' W 073°59'0 0.0
2017-Oct-15 02:57N 40°43' W 073°59'0 0.0
2017-Oct-15 02:21N 40°43' W 073°59'0 0.0
2017-Oct-15 01:44N 40°43' W 073°59'0 0.0
2017-Oct-15 01:20N 40°43' W 073°59'0 0.0
2017-Oct-15 00:11N 40°43' W 073°59'0 0.1
2017-Oct-15 00:00N 40°43' W 073°59'0 0.0
2017-Oct-14 23:11N 40°43' W 073°59'0 0.0
2017-Oct-14 23:00N 40°43' W 073°59'0 0.0
2017-Oct-14 21:10N 40°43' W 073°59'0 0.1
2017-Oct-14 21:00N 40°43' W 073°59'2 4.2
2017-Oct-14 20:27N 40°42' W 074°02'2 4.9
2017-Oct-14 19:58N 40°43' W 073°59'0 0.0
2017-Oct-14 19:24N 40°43' W 073°59'1 3.3
2017-Oct-14 18:58N 40°42' W 074°01'1 1.5
2017-Oct-14 18:18N 40°42' W 073°59'0 1.1
2017-Oct-14 17:58N 40°43' W 073°59'0 0.4
2017-Oct-14 17:12N 40°42' W 073°59'3 6.8
2017-Oct-14 16:49N 40°41' W 074°02'3 7.7
2017-Oct-14 16:30N 40°42' W 073°59'2 1.2
2017-Oct-14 15:10N 40°42' W 074°01'1 5.5
2017-Oct-14 14:59N 40°41' W 074°02'3 5.2
2017-Oct-14 14:25N 40°43' W 073°59'0 0.0
2017-Oct-14 14:00N 40°43' W 073°59'2 2.2
2017-Oct-14 13:16N 40°42' W 074°01'1 1.9
2017-Oct-14 12:54N 40°41' W 074°02'2 5.4
2017-Oct-14 12:27N 40°43' W 073°59'0 0.0
2017-Oct-14 11:56N 40°43' W 073°59'0 0.0
2017-Oct-14 11:22N 40°43' W 073°59'0 0.0
2017-Oct-14 10:45N 40°43' W 073°59'0 0.0
2017-Oct-14 10:27N 40°43' W 073°59'0 0.0
2017-Oct-14 09:56N 40°43' W 073°59'0 0.0
2017-Oct-14 09:08N 40°43' W 073°59'0 0.0
2017-Oct-14 08:11N 40°43' W 073°59'0 0.0
2017-Oct-14 08:00N 40°43' W 073°59'0 0.0
2017-Oct-14 06:21N 40°43' W 073°59'0 0.0
2017-Oct-14 05:52N 40°43' W 073°59'0 0.0
2017-Oct-14 05:12N 40°43' W 073°59'0 0.0
2017-Oct-14 04:49N 40°43' W 073°59'0 0.0
2017-Oct-14 04:07N 40°43' W 073°59'0 0.0
2017-Oct-14 03:48N 40°43' W 073°59'0 0.0
2017-Oct-14 03:28N 40°43' W 073°59'0 0.0
2017-Oct-14 03:00N 40°43' W 073°59'0 0.0
2017-Oct-14 02:26N 40°43' W 073°59'0 0.0
2017-Oct-14 01:59N 40°43' W 073°59'0 0.0
2017-Oct-14 01:28N 40°43' W 073°59'0 0.0
2017-Oct-14 01:00N 40°43' W 073°59'0 0.0
2017-Oct-14 00:27N 40°43' W 073°59'0 0.0
2017-Oct-13 23:46N 40°43' W 073°59'0 0.0
2017-Oct-13 23:28N 40°43' W 073°59'0 0.0
2017-Oct-13 22:55N 40°43' W 073°59'2 1.5
2017-Oct-13 21:44N 40°42' W 074°01'2 7.4
2017-Oct-13 21:30N 40°43' W 073°59'0 0.0
2017-Oct-13 20:28N 40°43' W 073°59'3 5.9
2017-Oct-13 19:57N 40°41' W 074°03'3 5.9
2017-Oct-13 19:29N 40°42' W 073°59'0 0.1
2017-Oct-13 16:41N 40°43' W 073°59'1 1.4
2017-Oct-13 16:10N 40°42' W 073°60'2 7.5
2017-Oct-13 15:54N 40°41' W 074°02'2 5.2
2017-Oct-13 15:27N 40°42' W 073°60'0 0.7
2017-Oct-13 14:55N 40°43' W 073°59'0 0.0
2017-Oct-13 14:30N 40°43' W 073°59'2 3.8
2017-Oct-13 13:57N 40°41' W 074°01'0 0.0
2017-Oct-13 13:16N 40°41' W 074°01'0 0.0
2017-Oct-13 12:45N 40°41' W 074°01'0 0.0
2017-Oct-13 12:27N 40°41' W 074°01'0 0.0
2017-Oct-13 11:17N 40°41' W 074°01'0 0.0
2017-Oct-13 10:52N 40°41' W 074°01'0 0.0
2017-Oct-13 10:19N 40°41' W 074°01'0 0.0
2017-Oct-13 09:55N 40°41' W 074°01'0 0.0
2017-Oct-13 09:22N 40°41' W 074°01'0 0.0
2017-Oct-13 08:57N 40°41' W 074°01'0 0.0
2017-Oct-13 08:29N 40°41' W 074°01'0 0.0
2017-Oct-13 07:59N 40°41' W 074°01'0 0.0
2017-Oct-13 07:29N 40°41' W 074°01'0 0.0
2017-Oct-13 06:59N 40°41' W 074°01'0 0.0
2017-Oct-13 06:29N 40°41' W 074°01'0 0.0
2017-Oct-13 05:57N 40°41' W 074°01'0 0.0
2017-Oct-13 05:16N 40°41' W 074°01'0 0.0
2017-Oct-13 04:56N 40°41' W 074°01'0 0.0
2017-Oct-13 04:28N 40°41' W 074°01'0 0.0
2017-Oct-13 03:58N 40°41' W 074°01'0 0.0
2017-Oct-13 03:29N 40°41' W 074°01'0 0.0
2017-Oct-13 02:58N 40°41' W 074°01'0 0.0
2017-Oct-13 02:27N 40°41' W 074°01'0 0.0
2017-Oct-13 01:57N 40°41' W 074°01'2 0.6
2017-Oct-12 22:24N 40°43' W 073°59'1 0.1
2017-Oct-12 17:06N 40°42' W 073°60'2 7.7
2017-Oct-12 16:51N 40°41' W 074°02'3 4.3
2017-Oct-12 16:13N 40°43' W 073°59'0 0.0
2017-Oct-12 15:57N 40°43' W 073°59'3 3.2
2017-Oct-12 15:09N 40°41' W 074°02'1 2.5
2017-Oct-12 14:52N 40°42' W 074°01'2 4.1
2017-Oct-12 14:26N 40°43' W 073°59'  
Track history (hours):
 
Tides and Currents Weather Stations Pressure Air Temp Water Temp Dewpoint Dewpoint Depression Visibility Wind Speed Wind Dir Waves Ship Positions

MV First Lady

Owner: QUEEN OF HEARTS CRUISES INC, NEW YORK, NY. More information available from US FCC via Universal Licensing System and Coast Guard Vessel Documentation Center.

Last reported at 2017-Oct-22 14:03 UTC. Time now 2017-Oct-22 17:46 UTC.
Position N 40°43' W 073°59'.

Length 30 m; draft 24.8 m.

Type: Passenger vessel. MMSI: 36671530.

Date/timePositionNaut miles runAvg speedWind from/ knotsBaromVisibWave heightAir tempDewpointWater temp
2017-Oct-22 14:03N 40°43' W 073°59'0 0.0
2017-Oct-22 13:54N 40°43' W 073°59'0 0.0
2017-Oct-22 13:29N 40°43' W 073°59'0 0.0
2017-Oct-22 12:59N 40°43' W 073°59'0 0.0
2017-Oct-22 12:26N 40°43' W 073°59'0 0.0
2017-Oct-22 11:53N 40°43' W 073°59'0 0.0
2017-Oct-22 11:30N 40°43' W 073°59'0 0.0
2017-Oct-22 10:57N 40°43' W 073°59'0 0.0
2017-Oct-22 10:23N 40°43' W 073°59'0 0.0
2017-Oct-22 09:59N 40°43' W 073°59'0 0.0
2017-Oct-22 09:28N 40°43' W 073°59'0 0.0
2017-Oct-22 08:56N 40°43' W 073°59'0 0.0
2017-Oct-22 08:26N 40°43' W 073°59'0 0.0
2017-Oct-22 07:49N 40°43' W 073°59'1 2.0
2017-Oct-22 07:13N 40°42' W 074°00'1 4.2
2017-Oct-22 06:59N 40°41' W 074°02'2 3.1
2017-Oct-22 06:26N 40°43' W 074°02'1 1.3
2017-Oct-22 05:51N 40°44' W 074°01'2 0.3
2017-Oct-21 23:18N 40°42' W 074°01'0 1.0
2017-Oct-21 22:55N 40°42' W 074°01'2 2.2
2017-Oct-21 22:12N 40°43' W 073°59'1 5.0
2017-Oct-21 21:56N 40°42' W 074°01'1 1.4
2017-Oct-21 21:00N 40°43' W 073°59'0 0.7
2017-Oct-21 20:25N 40°42' W 073°60'2 3.9
2017-Oct-21 19:51N 40°42' W 074°02'3 5.7
2017-Oct-21 19:23N 40°43' W 073°59'0 0.0
2017-Oct-21 19:00N 40°43' W 073°59'1 2.3
2017-Oct-21 18:25N 40°42' W 074°01'1 2.5
2017-Oct-21 17:57N 40°42' W 074°02'2 3.7
2017-Oct-21 17:17N 40°43' W 073°59'1 1.7
2017-Oct-21 16:51N 40°42' W 073°60'2 5.4
2017-Oct-21 16:26N 40°41' W 074°03'1 0.3
2017-Oct-21 13:18N 40°42' W 074°02'2 2.8
2017-Oct-21 12:34N 40°42' W 073°59'2 2.3
2017-Oct-21 11:43N 40°41' W 074°01'0 0.0
2017-Oct-21 10:56N 40°41' W 074°01'0 0.0
2017-Oct-21 10:28N 40°41' W 074°01'0 0.0
2017-Oct-21 09:46N 40°41' W 074°01'0 0.0
2017-Oct-21 09:18N 40°41' W 074°01'0 0.0
2017-Oct-21 08:50N 40°41' W 074°01'0 0.0
2017-Oct-21 08:21N 40°41' W 074°01'0 0.0
2017-Oct-21 07:59N 40°41' W 074°01'0 0.0
2017-Oct-21 07:26N 40°41' W 074°01'0 0.0
2017-Oct-21 07:00N 40°41' W 074°01'0 0.0
2017-Oct-21 06:30N 40°41' W 074°01'0 0.0
2017-Oct-21 05:53N 40°41' W 074°01'0 0.0
2017-Oct-21 05:29N 40°41' W 074°01'0 0.0
2017-Oct-21 04:59N 40°41' W 074°01'0 0.0
2017-Oct-21 04:27N 40°41' W 074°01'0 0.0
2017-Oct-21 03:59N 40°41' W 074°01'0 0.0
2017-Oct-21 03:28N 40°41' W 074°01'0 0.0
2017-Oct-21 02:53N 40°41' W 074°01'0 0.0
2017-Oct-21 02:26N 40°41' W 074°01'0 0.0
2017-Oct-21 01:59N 40°41' W 074°01'0 0.0
2017-Oct-21 01:29N 40°41' W 074°01'0 0.0
2017-Oct-21 01:00N 40°41' W 074°01'0 0.0
2017-Oct-21 00:24N 40°41' W 074°01'0 0.0
2017-Oct-20 23:58N 40°41' W 074°01'2 1.6
2017-Oct-20 22:39N 40°43' W 073°59'2 7.6
2017-Oct-20 22:22N 40°42' W 074°02'0 0.6
2017-Oct-20 22:00N 40°42' W 074°01'2 2.7
2017-Oct-20 21:17N 40°43' W 073°59'1 3.6
2017-Oct-20 20:54N 40°42' W 074°01'1 1.4
2017-Oct-20 20:28N 40°42' W 074°01'2 3.6
2017-Oct-20 19:55N 40°43' W 073°59'0 0.9
2017-Oct-20 19:25N 40°42' W 073°60'2 4.0
2017-Oct-20 18:51N 40°41' W 074°02'1 0.4
2017-Oct-20 15:31N 40°42' W 074°01'1 3.1
2017-Oct-20 15:17N 40°42' W 074°01'1 0.8
2017-Oct-20 13:50N 40°41' W 074°00'1 1.7
2017-Oct-20 13:29N 40°41' W 074°01'0 0.0
2017-Oct-20 13:00N 40°41' W 074°01'0 0.0
2017-Oct-20 12:27N 40°41' W 074°01'0 0.0
2017-Oct-20 12:00N 40°41' W 074°01'0 0.0
2017-Oct-20 11:29N 40°41' W 074°01'0 0.0
2017-Oct-20 10:58N 40°41' W 074°01'0 0.0
2017-Oct-20 10:28N 40°41' W 074°01'0 0.0
2017-Oct-20 09:55N 40°41' W 074°01'0 0.0
2017-Oct-20 09:30N 40°41' W 074°01'0 0.0
2017-Oct-20 08:59N 40°41' W 074°01'0 0.0
2017-Oct-20 08:30N 40°41' W 074°01'0 0.0
2017-Oct-20 07:53N 40°41' W 074°01'0 0.0
2017-Oct-20 07:30N 40°41' W 074°01'0 0.0
2017-Oct-20 06:58N 40°41' W 074°01'0 0.0
2017-Oct-20 06:28N 40°41' W 074°01'0 0.0
2017-Oct-20 05:58N 40°41' W 074°01'0 0.0
2017-Oct-20 05:29N 40°41' W 074°01'0 0.0
2017-Oct-20 05:00N 40°41' W 074°01'0 0.0
2017-Oct-20 04:24N 40°41' W 074°01'0 0.0
2017-Oct-20 03:55N 40°41' W 074°01'0 0.0
2017-Oct-20 03:29N 40°41' W 074°01'0 0.0
2017-Oct-20 02:55N 40°41' W 074°01'0 0.0
2017-Oct-20 02:30N 40°41' W 074°01'0 0.0
2017-Oct-20 01:59N 40°41' W 074°01'0 0.0
2017-Oct-20 01:25N 40°41' W 074°01'0 0.0
2017-Oct-20 00:59N 40°41' W 074°01'0 0.0
2017-Oct-20 00:30N 40°41' W 074°01'0 0.0
2017-Oct-19 23:57N 40°41' W 074°01'0 0.0
2017-Oct-19 23:22N 40°41' W 074°01'0 0.1
2017-Oct-19 23:00N 40°41' W 074°01'2 3.7
2017-Oct-19 22:27N 40°43' W 073°59'0 0.0
2017-Oct-19 16:02N 40°43' W 073°59'0 0.0
2017-Oct-19 15:46N 40°43' W 073°59'2 2.8
2017-Oct-19 15:07N 40°42' W 074°01'1 6.7
2017-Oct-19 14:57N 40°41' W 074°03'1 0.9
2017-Oct-19 13:27N 40°41' W 074°01'0 0.0
2017-Oct-19 12:54N 40°41' W 074°01'0 0.0
2017-Oct-19 12:29N 40°41' W 074°01'0 0.0
2017-Oct-19 11:57N 40°41' W 074°01'0 0.0
2017-Oct-19 11:29N 40°41' W 074°01'0 0.0
2017-Oct-19 11:00N 40°41' W 074°01'0 0.0
2017-Oct-19 10:28N 40°41' W 074°01'0 0.0
2017-Oct-19 10:00N 40°41' W 074°01'0 0.0
2017-Oct-19 09:27N 40°41' W 074°01'0 0.0
2017-Oct-19 09:00N 40°41' W 074°01'0 0.0
2017-Oct-19 08:29N 40°41' W 074°01'0 0.0
2017-Oct-19 08:00N 40°41' W 074°01'0 0.0
2017-Oct-19 07:27N 40°41' W 074°01'0 0.0
2017-Oct-19 06:53N 40°41' W 074°01'0 0.0
2017-Oct-19 06:24N 40°41' W 074°01'0 0.0
2017-Oct-19 06:00N 40°41' W 074°01'0 0.0
2017-Oct-19 05:29N 40°41' W 074°01'0 0.0
2017-Oct-19 05:00N 40°41' W 074°01'0 0.0
2017-Oct-19 04:29N 40°41' W 074°01'0 0.0
2017-Oct-19 03:56N 40°41' W 074°01'0 0.0
2017-Oct-19 03:30N 40°41' W 074°01'0 0.0
2017-Oct-19 03:00N 40°41' W 074°01'0 0.0
2017-Oct-19 02:30N 40°41' W 074°01'0 0.0
2017-Oct-19 02:00N 40°41' W 074°01'0 0.0
2017-Oct-19 01:30N 40°41' W 074°01'0 0.0
2017-Oct-19 00:56N 40°41' W 074°01'0 0.0
2017-Oct-19 00:28N 40°41' W 074°01'0 0.0
2017-Oct-18 23:57N 40°41' W 074°01'0 0.0
2017-Oct-18 23:22N 40°41' W 074°01'0 0.0
2017-Oct-18 23:00N 40°41' W 074°01'0 0.0
2017-Oct-18 22:28N 40°41' W 074°01'1 0.6
2017-Oct-18 20:09N 40°42' W 073°60'1 4.5
2017-Oct-18 19:59N 40°43' W 073°59'0 0.0
2017-Oct-18 19:29N 40°43' W 073°59'1 1.8
2017-Oct-18 18:51N 40°42' W 074°00'1 0.4
2017-Oct-18 15:35N 40°43' W 073°59'2 4.1
2017-Oct-18 15:11N 40°42' W 074°01'1 2.5
2017-Oct-18 14:51N 40°41' W 074°02'3 2.7
2017-Oct-18 13:55N 40°43' W 073°59'2 4.3
2017-Oct-18 13:26N 40°41' W 074°01'0 0.1
2017-Oct-18 13:00N 40°41' W 074°01'0 0.0
2017-Oct-18 12:30N 40°41' W 074°01'0 0.0
2017-Oct-18 12:00N 40°41' W 074°01'0 0.0
2017-Oct-18 11:29N 40°41' W 074°01'0 0.0
2017-Oct-18 11:00N 40°41' W 074°01'0 0.0
2017-Oct-18 10:29N 40°41' W 074°01'0 0.0
2017-Oct-18 10:00N 40°41' W 074°01'0 0.0
2017-Oct-18 09:28N 40°41' W 074°01'0 0.0
2017-Oct-18 08:59N 40°41' W 074°01'0 0.0
2017-Oct-18 08:29N 40°41' W 074°01'0 0.0
2017-Oct-18 07:59N 40°41' W 074°01'0 0.0
2017-Oct-18 07:28N 40°41' W 074°01'0 0.0
2017-Oct-18 07:00N 40°41' W 074°01'0 0.0
2017-Oct-18 06:29N 40°41' W 074°01'0 0.0
2017-Oct-18 06:00N 40°41' W 074°01'0 0.0
2017-Oct-18 05:30N 40°41' W 074°01'0 0.0
2017-Oct-18 05:00N 40°41' W 074°01'0 0.0
2017-Oct-18 04:30N 40°41' W 074°01'0 0.0
2017-Oct-18 03:59N 40°41' W 074°01'0 0.0
2017-Oct-18 03:30N 40°41' W 074°01'0 0.0
2017-Oct-18 02:59N 40°41' W 074°01'0 0.0
2017-Oct-18 02:29N 40°41' W 074°01'0 0.0
2017-Oct-18 01:56N 40°41' W 074°01'0 0.0
2017-Oct-18 01:30N 40°41' W 074°01'0 0.0
2017-Oct-18 01:00N 40°41' W 074°01'0 0.0
2017-Oct-18 00:30N 40°41' W 074°01'0 0.0
2017-Oct-18 00:00N 40°41' W 074°01'0 0.0
2017-Oct-17 23:27N 40°41' W 074°01'0 0.0
2017-Oct-17 23:00N 40°41' W 074°01'2 3.2
2017-Oct-17 22:21N 40°43' W 073°59'0 0.0
2017-Oct-17 17:50N 40°43' W 073°59'0 0.2
2017-Oct-17 17:16N 40°42' W 073°59'3 4.9
2017-Oct-17 16:42N 40°41' W 074°02'0 0.0
2017-Oct-17 14:58N 40°41' W 074°02'3 4.4
2017-Oct-17 14:20N 40°43' W 073°59'0 0.0
2017-Oct-17 14:00N 40°43' W 073°59'2 3.9
2017-Oct-17 13:29N 40°41' W 074°01'0 0.1
2017-Oct-17 13:00N 40°41' W 074°01'0 0.0
2017-Oct-17 12:29N 40°41' W 074°01'0 0.0
2017-Oct-17 12:00N 40°41' W 074°01'0 0.0
2017-Oct-17 11:30N 40°41' W 074°01'0 0.0
2017-Oct-17 11:00N 40°41' W 074°01'0 0.0
2017-Oct-17 10:30N 40°41' W 074°01'0 0.0
2017-Oct-17 09:59N 40°41' W 074°01'0 0.0
2017-Oct-17 09:30N 40°41' W 074°01'0 0.0
2017-Oct-17 08:57N 40°41' W 074°01'0 0.0
2017-Oct-17 08:30N 40°41' W 074°01'0 0.0
2017-Oct-17 08:00N 40°41' W 074°01'0 0.0
2017-Oct-17 07:29N 40°41' W 074°01'0 0.0
2017-Oct-17 07:00N 40°41' W 074°01'0 0.0
2017-Oct-17 06:28N 40°41' W 074°01'0 0.0
2017-Oct-17 05:53N 40°41' W 074°01'0 0.0
2017-Oct-17 05:30N 40°41' W 074°01'0 0.0
2017-Oct-17 04:59N 40°41' W 074°01'0 0.0
2017-Oct-17 04:29N 40°41' W 074°01'0 0.0
2017-Oct-17 04:00N 40°41' W 074°01'0 0.0
2017-Oct-17 03:28N 40°41' W 074°01'0 0.0
2017-Oct-17 03:00N 40°41' W 074°01'0 0.0
2017-Oct-17 02:30N 40°41' W 074°01'0 0.0
2017-Oct-17 02:00N 40°41' W 074°01'0 0.0
2017-Oct-17 01:30N 40°41' W 074°01'0 0.0
2017-Oct-17 00:59N 40°41' W 074°01'0 0.0
2017-Oct-17 00:26N 40°41' W 074°01'0 0.0
2017-Oct-16 23:59N 40°41' W 074°01'0 0.0
2017-Oct-16 23:27N 40°41' W 074°01'0 0.0
2017-Oct-16 22:59N 40°41' W 074°01'2 2.3
2017-Oct-16 22:20N 40°42' W 073°60'1 1.8
2017-Oct-16 21:31N 40°42' W 074°02'0 7.2
2017-Oct-16 21:30N 40°42' W 074°02'2 2.7
2017-Oct-16 20:40N 40°43' W 073°59'0 0.0
2017-Oct-16 20:30N 40°43' W 073°59'0 0.0
2017-Oct-16 19:56N 40°43' W 073°59'2 3.8
2017-Oct-16 19:23N 40°42' W 074°01'2 3.2
2017-Oct-16 18:44N 40°43' W 073°59'0 0.0
2017-Oct-16 18:30N 40°43' W 073°59'0 0.0
2017-Oct-16 18:00N 40°43' W 073°59'0 0.0
2017-Oct-16 16:33N 40°43' W 073°59'0 0.0
2017-Oct-16 16:30N 40°43' W 073°59'2 3.5
2017-Oct-16 15:57N 40°42' W 074°01'2 2.9
2017-Oct-16 15:17N 40°43' W 073°59'0 0.0
2017-Oct-16 14:45N 40°43' W 073°59'0 0.0
2017-Oct-16 14:29N 40°43' W 073°59'2 2.0
2017-Oct-16 13:29N 40°41' W 074°01'0 0.0
2017-Oct-16 12:56N 40°41' W 074°01'0 0.0
2017-Oct-16 12:30N 40°41' W 074°01'0 0.0
2017-Oct-16 11:59N 40°41' W 074°01'0 0.0
2017-Oct-16 11:28N 40°41' W 074°01'0 0.0
2017-Oct-16 10:59N 40°41' W 074°01'0 0.0
2017-Oct-16 10:30N 40°41' W 074°01'0 0.0
2017-Oct-16 09:56N 40°41' W 074°01'0 0.0
2017-Oct-16 09:30N 40°41' W 074°01'0 0.0
2017-Oct-16 08:57N 40°41' W 074°01'0 0.0
2017-Oct-16 08:30N 40°41' W 074°01'0 0.0
2017-Oct-16 07:57N 40°41' W 074°01'0 0.0
2017-Oct-16 07:29N 40°41' W 074°01'0 0.0
2017-Oct-16 06:59N 40°41' W 074°01'0 0.0
2017-Oct-16 06:26N 40°41' W 074°01'0 0.0
2017-Oct-16 06:00N 40°41' W 074°01'0 0.0
2017-Oct-16 05:30N 40°41' W 074°01'0 0.0
2017-Oct-16 05:00N 40°41' W 074°01'0 0.0
2017-Oct-16 04:30N 40°41' W 074°01'0 0.0
2017-Oct-16 04:00N 40°41' W 074°01'0 0.0
2017-Oct-16 03:30N 40°41' W 074°01'0 0.0
2017-Oct-16 02:56N 40°41' W 074°01'0 0.0
2017-Oct-16 02:29N 40°41' W 074°01'0 0.0
2017-Oct-16 01:58N 40°41' W 074°01'0 0.0
2017-Oct-16 01:29N 40°41' W 074°01'0 0.0
2017-Oct-16 00:58N 40°41' W 074°01'0 0.0
2017-Oct-16 00:30N 40°41' W 074°01'0 0.0
2017-Oct-15 23:56N 40°41' W 074°01'0 0.0
2017-Oct-15 23:30N 40°41' W 074°01'2 4.2
2017-Oct-15 23:00N 40°43' W 073°59'2 3.1
2017-Oct-15 22:30N 40°42' W 074°01'0 0.3
2017-Oct-15 21:59N 40°42' W 074°01'1 2.9
2017-Oct-15 21:29N 40°43' W 073°59'3 3.9
2017-Oct-15 20:49N 40°42' W 074°02'3 3.3
2017-Oct-15 20:01N 40°43' W 073°59'0 0.0
2017-Oct-15 19:56N 40°43' W 073°59'0 0.0
2017-Oct-15 19:17N 40°43' W 073°59'2 4.9
2017-Oct-15 18:57N 40°42' W 074°01'1 1.0
2017-Oct-15 18:26N 40°42' W 074°00'1 0.5
2017-Oct-15 17:03N 40°42' W 074°01'1 1.4
2017-Oct-15 16:34N 40°42' W 074°01'1 3.3
2017-Oct-15 16:11N 40°43' W 073°59'0 0.0
2017-Oct-15 16:00N 40°43' W 073°59'0 0.6
2017-Oct-15 15:26N 40°42' W 073°59'1 0.7
2017-Oct-15 14:40N 40°42' W 074°00'1 0.8
2017-Oct-15 13:45N 40°43' W 073°59'0 0.0
2017-Oct-15 13:10N 40°43' W 073°59'0 0.0
2017-Oct-15 12:50N 40°43' W 073°59'0 0.0
2017-Oct-15 12:24N 40°43' W 073°59'0 0.0
2017-Oct-15 12:00N 40°43' W 073°59'0 0.0
2017-Oct-15 10:32N 40°43' W 073°59'0 0.1
2017-Oct-15 10:25N 40°43' W 073°59'0 0.0
2017-Oct-15 09:58N 40°43' W 073°59'0 0.0
2017-Oct-15 09:28N 40°43' W 073°59'0 0.0
2017-Oct-15 08:58N 40°43' W 073°59'0 0.0
2017-Oct-15 08:27N 40°43' W 073°59'0 0.0
2017-Oct-15 07:58N 40°43' W 073°59'0 0.0
2017-Oct-15 07:27N 40°43' W 073°59'0 0.0
2017-Oct-15 06:56N 40°43' W 073°59'0 0.0
2017-Oct-15 06:25N 40°43' W 073°59'0 0.0
2017-Oct-15 05:57N 40°43' W 073°59'0 0.0
2017-Oct-15 04:50N 40°43' W 073°59'0 0.0
2017-Oct-15 04:21N 40°43' W 073°59'0 0.0
2017-Oct-15 03:59N 40°43' W 073°59'0 0.0
2017-Oct-15 03:26N 40°43' W 073°59'0 0.0
2017-Oct-15 02:57N 40°43' W 073°59'0 0.0
2017-Oct-15 02:21N 40°43' W 073°59'0 0.0
2017-Oct-15 01:44N 40°43' W 073°59'0 0.0
2017-Oct-15 01:20N 40°43' W 073°59'0 0.0
2017-Oct-15 00:11N 40°43' W 073°59'0 0.1
2017-Oct-15 00:00N 40°43' W 073°59'0 0.0
2017-Oct-14 23:11N 40°43' W 073°59'0 0.0
2017-Oct-14 23:00N 40°43' W 073°59'0 0.0
2017-Oct-14 21:10N 40°43' W 073°59'0 0.1
2017-Oct-14 21:00N 40°43' W 073°59'2 4.2
2017-Oct-14 20:27N 40°42' W 074°02'2 4.9
2017-Oct-14 19:58N 40°43' W 073°59'0 0.0
2017-Oct-14 19:24N 40°43' W 073°59'1 3.3
2017-Oct-14 18:58N 40°42' W 074°01'1 1.5
2017-Oct-14 18:18N 40°42' W 073°59'0 1.1
2017-Oct-14 17:58N 40°43' W 073°59'0 0.4
2017-Oct-14 17:12N 40°42' W 073°59'3 6.8
2017-Oct-14 16:49N 40°41' W 074°02'3 7.7
2017-Oct-14 16:30N 40°42' W 073°59'2 1.2
2017-Oct-14 15:10N 40°42' W 074°01'1 5.5
2017-Oct-14 14:59N 40°41' W 074°02'3 5.2
2017-Oct-14 14:25N 40°43' W 073°59'0 0.0
2017-Oct-14 14:00N 40°43' W 073°59'2 2.2
2017-Oct-14 13:16N 40°42' W 074°01'1 1.9
2017-Oct-14 12:54N 40°41' W 074°02'2 5.4
2017-Oct-14 12:27N 40°43' W 073°59'0 0.0
2017-Oct-14 11:56N 40°43' W 073°59'0 0.0
2017-Oct-14 11:22N 40°43' W 073°59'0 0.0
2017-Oct-14 10:45N 40°43' W 073°59'0 0.0
2017-Oct-14 10:27N 40°43' W 073°59'0 0.0
2017-Oct-14 09:56N 40°43' W 073°59'0 0.0
2017-Oct-14 09:08N 40°43' W 073°59'0 0.0
2017-Oct-14 08:11N 40°43' W 073°59'0 0.0
2017-Oct-14 08:00N 40°43' W 073°59'0 0.0
2017-Oct-14 06:21N 40°43' W 073°59'0 0.0
2017-Oct-14 05:52N 40°43' W 073°59'0 0.0
2017-Oct-14 05:12N 40°43' W 073°59'0 0.0
2017-Oct-14 04:49N 40°43' W 073°59'0 0.0
2017-Oct-14 04:07N 40°43' W 073°59'0 0.0
2017-Oct-14 03:48N 40°43' W 073°59'0 0.0
2017-Oct-14 03:28N 40°43' W 073°59'0 0.0
2017-Oct-14 03:00N 40°43' W 073°59'0 0.0
2017-Oct-14 02:26N 40°43' W 073°59'0 0.0
2017-Oct-14 01:59N 40°43' W 073°59'0 0.0
2017-Oct-14 01:28N 40°43' W 073°59'0 0.0
2017-Oct-14 01:00N 40°43' W 073°59'0 0.0
2017-Oct-14 00:27N 40°43' W 073°59'0 0.0
2017-Oct-13 23:46N 40°43' W 073°59'0 0.0
2017-Oct-13 23:28N 40°43' W 073°59'0 0.0
2017-Oct-13 22:55N 40°43' W 073°59'2 1.5
2017-Oct-13 21:44N 40°42' W 074°01'2 7.4
2017-Oct-13 21:30N 40°43' W 073°59'0 0.0
2017-Oct-13 20:28N 40°43' W 073°59'3 5.9
2017-Oct-13 19:57N 40°41' W 074°03'3 5.9
2017-Oct-13 19:29N 40°42' W 073°59'0 0.1
2017-Oct-13 16:41N 40°43' W 073°59'1 1.4
2017-Oct-13 16:10N 40°42' W 073°60'2 7.5
2017-Oct-13 15:54N 40°41' W 074°02'2 5.2
2017-Oct-13 15:27N 40°42' W 073°60'0 0.7
2017-Oct-13 14:55N 40°43' W 073°59'0 0.0
2017-Oct-13 14:30N 40°43' W 073°59'2 3.8
2017-Oct-13 13:57N 40°41' W 074°01'0 0.0
2017-Oct-13 13:16N 40°41' W 074°01'0 0.0
2017-Oct-13 12:45N 40°41' W 074°01'0 0.0
2017-Oct-13 12:27N 40°41' W 074°01'0 0.0
2017-Oct-13 11:17N 40°41' W 074°01'0 0.0
2017-Oct-13 10:52N 40°41' W 074°01'0 0.0
2017-Oct-13 10:19N 40°41' W 074°01'0 0.0
2017-Oct-13 09:55N 40°41' W 074°01'0 0.0
2017-Oct-13 09:22N 40°41' W 074°01'0 0.0
2017-Oct-13 08:57N 40°41' W 074°01'0 0.0
2017-Oct-13 08:29N 40°41' W 074°01'0 0.0
2017-Oct-13 07:59N 40°41' W 074°01'0 0.0
2017-Oct-13 07:29N 40°41' W 074°01'0 0.0
2017-Oct-13 06:59N 40°41' W 074°01'0 0.0
2017-Oct-13 06:29N 40°41' W 074°01'0 0.0
2017-Oct-13 05:57N 40°41' W 074°01'0 0.0
2017-Oct-13 05:16N 40°41' W 074°01'0 0.0
2017-Oct-13 04:56N 40°41' W 074°01'0 0.0
2017-Oct-13 04:28N 40°41' W 074°01'0 0.0
2017-Oct-13 03:58N 40°41' W 074°01'0 0.0
2017-Oct-13 03:29N 40°41' W 074°01'0 0.0
2017-Oct-13 02:58N 40°41' W 074°01'0 0.0
2017-Oct-13 02:27N 40°41' W 074°01'0 0.0
2017-Oct-13 01:57N 40°41' W 074°01'2 0.6
2017-Oct-12 22:24N 40°43' W 073°59'1 0.1
2017-Oct-12 17:06N 40°42' W 073°60'2 7.7
2017-Oct-12 16:51N 40°41' W 074°02'3 4.3
2017-Oct-12 16:13N 40°43' W 073°59'0 0.0
2017-Oct-12 15:57N 40°43' W 073°59'3 3.2
2017-Oct-12 15:09N 40°41' W 074°02'1 2.5
2017-Oct-12 14:52N 40°42' W 074°01'2 4.1
2017-Oct-12 14:26N 40°43' W 073°59'  

Dump ship's entire track history